x

Halibut Bank (46146) Wave Buoy

9:00 - Tue 23rd Aug 2016 All times are PDT. -7 hours from GMT.

  • Sig Wave height 1.0ft
  • Peak Period 2s
  • Wind
    16mph, 18mph gusts
  • Sea Temp 64°f
  • Air Temp 67°f
  • Sea Pressure 1021.2mb
  • Halibut Bank
  • Halibut Bank

More Historic Weather Station data

Upgrade to MSW Pro to gain access to the past 30 days of data for over 8000 Wavebouys and Weather Stations around the globe.

Join Pro

Comparision Forecast

View Surf forecast
   
mar. 08/23 9:00 1ft 2s 16 18 mph 1021.2mb 64f 67f
8:00 1ft 3s 16 18 mph 1020.8mb 64f 68f
7:00 1ft 2s 13 16 mph 1021mb 64f 67f
6:00 1ft 3s 13
mph
1021.2mb 64f 65f
5:00 1ft 3s 11 13 mph 1021.6mb 64f 65f
4:00 1ft 3s 13 16 mph 1022mb 63f 63f
3:00 1.3ft 3s 11 16 mph 1022.4mb 63f 63f
2:00 1.3ft 3s 11 13 mph 1022.7mb 63f 62f
1:00 1.6ft 4s 11
mph
1023.1mb 62f 61f
12:00 2ft 3s 13 16 mph 1023.3mb 62f 60f
11:00 2ft 4s 18
mph
1023.2mb 62f 60f
10:00 1.6ft 3s 13 18 mph 1023.2mb 62f 60f
9:00 2ft 4s 13 16 mph 1023.1mb 62f 59f
8:00 1.6ft 3s 16 18 mph 1022.7mb 62f 59f
7:00 1.3ft 3s 16 20 mph 1022.3mb 62f 60f
6:00 0.7ft 3s 13 16 mph 1022mb 62f 60f
5:00 0.3ft 2s 11
mph
1021.7mb 63f 60f
4:00 0.3ft 2s 7 9 mph 1021.6mb 63f 61f
3:00 0.3ft 2s 9 11 mph 1021.2mb 63f 61f
2:00 0.3ft 2s 9 11 mph 1021mb 63f 62f
1:00 0.3ft 4s 7
mph
1020.8mb 63f 60f
12:00 0.3ft 4s 7
mph
1020.5mb 64f 62f
lun. 08/22 11:00 0.3ft 2s 7 9 mph 1020.2mb 64f 63f
10:00 0.3ft 3s 7
mph
1019.8mb 64f 63f
9:00 0.7ft 6s 4 7 mph 1019.4mb 64f 63f
8:00 0.3ft 2s 4
mph
1018.8mb 63f 63f
7:00 0.7ft 3s 4 7 mph 1018.8mb 63f 64f
6:00 0.3ft 4s 7 9 mph 1018.8mb 63f 64f
5:00 0.7ft 6s 7 9 mph 1019.1mb 64f 63f
4:00 0.7ft 3s 9 11 mph 1019.1mb 64f 62f
3:00 0.7ft 4s 7 9 mph 1019.1mb 65f 62f
2:00 0.7ft 3s  -  mph 1019mb 63f 65f
1:00 0.7ft 3s 4 7 mph 1018.7mb 62f 61f
12:00 0.7ft 6s 9 11 mph 1018.4mb 62f 61f
11:00 0.7ft 2s 7 9 mph 1018.1mb 61f 60f
10:00 1ft 3s 9 11 mph 1017.6mb 61f 60f
9:00 1.3ft 3s 11 13 mph 1017.2mb 61f 60f
8:00 1.6ft 4s 13 18 mph 1016.4mb 60f 59f
7:00 1.6ft 3s 16 20 mph 1015.8mb 60f 60f
6:00 1.6ft 4s 18 22 mph 1014.9mb 61f 60f
5:00 2ft 4s 18 22 mph 1014.5mb 61f 60f
4:00 2ft 4s 18 22 mph 1014.3mb 62f 61f
3:00 2.5ft 4s 20 25 mph 1014.1mb 63f 61f
2:00 2ft 3s 22 27 mph 1013.5mb 63f 61f
1:00 2.5ft 4s 18 20 mph 1013.4mb 63f 62f
12:00 2.5ft 4s 20 22 mph 1012.7mb 63f 64f
dim. 08/21 11:00 2ft 4s 20 22 mph 1012.4mb 63f 63f
10:00 2.5ft 4s 22 25 mph 1011.7mb 63f 64f
9:00 2ft 4s 20 25 mph 1011.5mb 64f 64f
8:00 1.6ft 4s 18 22 mph 1010.9mb 64f 64f
7:00 1.3ft 4s 13
mph
1011mb 64f 64f
6:00 1.6ft 4s 9 13 mph 1011.4mb 64f 62f
5:00 1.3ft 3s 13 20 mph 1011.1mb 64f 62f
4:00 0.7ft 3s 11 16 mph 1010.8mb 67f 65f
3:00 1ft 3s 4
mph
1010.8mb 67f 65f
2:00 1ft 3s  -  2 mph 1010.9mb 66f 65f
1:00 1ft 3s 2 7 mph 1010.8mb 65f 63f
12:00 1ft 3s 2 4 mph 1010.3mb 65f 62f
11:00 1ft 3s 2 4 mph 1009.8mb 64f 62f
10:00 1ft 3s 7 9 mph 1009.3mb 64f 62f
9:00 1ft 3s 4
mph
1008.3mb 64f 62f
8:00 0.7ft 3s 9 11 mph 1008.2mb 64f 63f
7:00 0.7ft 3s 9 13 mph 1007.9mb 64f 64f
6:00 1ft 3s 4
mph
1007.6mb 64f 64f
5:00 1ft 3s 11 13 mph 1007.7mb 64f 64f
4:00 1ft 3s 13 16 mph 1007.7mb 64f 65f
3:00 1ft 4s 9 13 mph 1007.9mb 64f 65f
2:00 1.3ft 3s 16 18 mph 1007.9mb 64f 65f
1:00 1.6ft 3s 18 20 mph 1007.9mb 64f 65f
12:00 1.3ft 3s 18 20 mph 1007.9mb 65f 66f
sam. 08/20 11:00 1.3ft 3s 16 18 mph 1008mb 65f 67f
10:00 1ft 3s 16 18 mph 1008.2mb 65f 67f
9:00 1.3ft 3s 13 16 mph 1008.4mb 65f 70f
8:00 1.3ft 3s 16 20 mph 1008.1mb 66f 69f
7:00 1ft 3s 16 18 mph 1008.5mb 65f 70f
6:00 1ft 3s 13 16 mph 1009.2mb 66f 69f
5:00 1ft 3s 13 16 mph 1010mb 65f 69f
4:00 1ft 3s 9 13 mph 1011.1mb 65f 67f
3:00 1ft 3s 11 13 mph 1011.9mb 64f 66f
2:00 1.3ft 3s 11 13 mph 1012.6mb 64f 65f
1:00 1.6ft 3s 11 13 mph 1013.1mb 63f 64f
12:00 1.3ft 3s 16 18 mph 1013.5mb 64f 64f
11:00 1.3ft 3s 18 20 mph 1013.7mb 63f 63f
10:00 1.3ft 3s 16 18 mph 1013.8mb 62f 63f
9:00 1.6ft 3s 16 18 mph 1013.8mb 62f 63f
8:00 1.6ft 3s 16 18 mph 1013.7mb 62f 63f
7:00 1.3ft 3s 16 20 mph 1013.4mb 62f 63f
6:00 1ft 3s 13 16 mph 1013.3mb 63f 63f